Skip to main content

NOAA/GLERL Met Station at Muskegon, MI

Previous 3 Hours (2 minute increments)
See also Previous 5 Days (top of hour)
Jump down to Data
Switch to [English][Metric]
Zoom: Click and drag, Pan: shift-click and drag, Unzoom: double-click, Unzoom All






See also 1-day windrose plot


NOAA/GLERL Met Station at Muskegon, MI

Previous 3 Hours (2 minute increments)
See also Previous 5 Days (top of hour only)
Jump up to Graphs
Switch to [English][Metric]
                  Wind  Wind  Wind   Air   Dew   Rel     Sta   PAR
                   Spd   Gst   Dir  Temp    Pt   Hum    Pres uE/m2/
YYYY-MM-DD   EST   kts   kts   deg     F     F     %   in Hg   sec
2020-01-24 10:40  10.9  13.6   110  35.2  33.3  92.7   29.31   181
2020-01-24 10:38  10.5  14.8   108  35.2  33.3  92.6   29.31   193
2020-01-24 10:36  10.7  14.2   108  35.2  33.3  92.6   29.31   188
2020-01-24 10:34   9.9  14.8   106  35.2  33.3  92.6   29.31   168
2020-01-24 10:32  12.8  15.7   113  35.2  33.3  92.6   29.31   134
2020-01-24 10:30  11.9  15.2   114  35.2  33.3  92.7   29.31   124
2020-01-24 10:28  12.1  15.6   114  35.2  33.4  92.8   29.31   139
2020-01-24 10:26  12.1  18.1   113  35.2  33.5  93.1   29.31   145
2020-01-24 10:24  12.8  16.1   113  35.1  33.3  93.2   29.31   144
2020-01-24 10:22  11.3  13.8   109  35.1  33.3  93.2   29.31   152
2020-01-24 10:20  11.1  14.4   114  34.9  33.1  93.2   29.31   151
2020-01-24 10:18  11.5  14.2   110  34.9  33.1  93.1   29.31   144
2020-01-24 10:16  10.7  15.2   107  34.9  33.1  93.0   29.32   130
2020-01-24 10:14  10.5  14.0   115  35.1  33.2  93.0   29.32   126
2020-01-24 10:12  10.1  13.6   112  35.1  33.2  92.9   29.32   123
2020-01-24 10:10  10.5  13.6   111  35.1  33.2  92.8   29.32   129
2020-01-24 10:08  10.5  13.6   110  35.1  33.2  92.7   29.32   124
2020-01-24 10:06  11.7  16.3   107  35.1  33.1  92.6   29.32   123
2020-01-24 10:04  11.9  15.7   111  35.1  33.1  92.5   29.32   112
2020-01-24 10:02  11.9  15.9   115  35.1  33.0  92.2   29.32   103
2020-01-24 10:00  12.8  16.7   117  35.1  33.0  92.0   29.32   106
2020-01-24 09:58  11.3  15.9   115  35.1  32.9  91.7   29.32   102
2020-01-24 09:56  12.2  17.3   117  35.1  32.8  91.5   29.32    92
2020-01-24 09:54  13.0  16.5   112  35.1  32.8  91.3   29.32    88
2020-01-24 09:52  13.8  18.3   117  35.1  32.8  91.2   29.32    83
2020-01-24 09:50  11.3  14.4   114  35.1  32.8  91.2   29.32    78
2020-01-24 09:48  11.7  17.3   114  35.1  32.7  91.1   29.32    81
2020-01-24 09:46  10.5  14.0   108  35.1  32.7  91.1   29.32    94
2020-01-24 09:44  12.2  15.6   112  35.1  32.7  91.1   29.32   114
2020-01-24 09:42  10.1  14.2   109  35.1  32.7  91.1   29.32   113
2020-01-24 09:40   9.7  12.8   111  35.1  32.8  91.2   29.32    93
2020-01-24 09:38  12.2  15.6   110  35.1  32.8  91.5   29.32    87
2020-01-24 09:36  10.3  15.9   109  35.1  32.8  91.4   29.32    93
2020-01-24 09:34  11.3  14.0   110  35.1  32.8  91.4   29.32    98
2020-01-24 09:32  12.4  16.7   108  35.1  32.8  91.3   29.32   102
2020-01-24 09:30  12.4  14.8   110  35.1  32.8  91.3   29.32   106
2020-01-24 09:28  12.4  16.9   113  35.1  32.8  91.2   29.32   106
2020-01-24 09:26  10.5  14.4   110  35.2  32.9  91.2   29.32   102
2020-01-24 09:24  11.7  15.6   114  35.2  33.0  91.3   29.32    88
2020-01-24 09:22  11.3  15.2   117  35.2  32.9  91.2   29.33    75
2020-01-24 09:20  11.9  16.1   116  35.2  32.9  91.2   29.33    68
2020-01-24 09:18  11.3  16.1   117  35.2  32.9  91.2   29.33    56
2020-01-24 09:16  11.3  15.2   113  35.2  33.0  91.3   29.33    49
2020-01-24 09:14  10.7  13.6   110  35.2  33.0  91.4   29.33    48
2020-01-24 09:12  11.7  15.4   114  35.2  33.0  91.4   29.33    40
2020-01-24 09:10  10.7  12.8   112  35.2  33.0  91.4   29.33    40
2020-01-24 09:08  11.9  15.0   113  35.1  32.9  91.7   29.32    38
2020-01-24 09:06  11.7  14.6   118  35.1  32.9  91.8   29.32    35
2020-01-24 09:04  11.7  14.2   113  35.1  32.9  91.8   29.32    35
2020-01-24 09:02  11.5  14.4   113  35.1  32.9  91.9   29.32    37
2020-01-24 09:00  12.1  15.4   113  35.1  32.9  91.9   29.32    35
2020-01-24 08:58  12.6  15.7   116  35.1  33.0  92.0   29.32    30
2020-01-24 08:56  11.3  15.2   114  35.1  32.9  91.9   29.32    30
2020-01-24 08:54  12.1  16.1   113  35.1  33.0  92.1   29.32    28
2020-01-24 08:52  14.2  17.3   114  35.1  33.0  92.2   29.32    24
2020-01-24 08:50  12.2  17.1   114  35.1  33.1  92.3   29.33    20
2020-01-24 08:48  13.6  17.9   116  34.9  32.9  92.3   29.33    18
2020-01-24 08:46  10.9  15.9   114  34.9  32.9  92.2   29.33    18
2020-01-24 08:44  11.7  15.2   113  34.9  32.8  92.1   29.33    19
2020-01-24 08:42  12.8  17.3   117  34.9  32.8  92.0   29.33    21
2020-01-24 08:40  12.4  16.9   107  34.9  32.8  92.0   29.32    22
2020-01-24 08:38  13.6  18.1   113  34.9  32.8  92.0   29.32    23
2020-01-24 08:36  13.0  18.7   112  34.9  32.7  91.8   29.32    20
2020-01-24 08:34  12.6  18.5   112  35.1  32.9  91.7   29.32    19
2020-01-24 08:32  12.4  18.7   113  35.1  32.9  91.6   29.32    20
2020-01-24 08:30  12.8  15.9   113  35.1  32.8  91.5   29.32    17
2020-01-24 08:28  12.2  18.7   114  35.1  32.8  91.3   29.32    15
2020-01-24 08:26  11.5  14.6   110  35.1  32.8  91.2   29.32    13
2020-01-24 08:24  12.4  19.1   110  35.1  32.7  91.1   29.32    11
2020-01-24 08:22  15.4  21.0   111  35.1  32.7  90.9   29.32    10
2020-01-24 08:20  12.8  15.7   111  35.2  32.8  90.7   29.32     8
2020-01-24 08:18  13.8  18.3   118  35.2  32.8  90.6   29.32     6
2020-01-24 08:16  13.6  18.3   115  35.2  32.7  90.4   29.32     6
2020-01-24 08:14  13.6  19.2   116  35.2  32.6  90.1   29.32     5
2020-01-24 08:12  14.8  18.1   118  35.4  32.8  89.9   29.32     5
2020-01-24 08:10  13.4  18.3   113  35.4  32.7  89.7   29.32     5
2020-01-24 08:08  13.2  20.8   116  35.4  32.6  89.5   29.32     4
2020-01-24 08:06  14.0  17.9   113  35.4  32.6  89.3   29.32     4
2020-01-24 08:04  14.8  18.7   116  35.4  32.5  89.1   29.32     3
2020-01-24 08:02  14.4  18.1   113  35.6  32.7  88.9   29.32     3
2020-01-24 08:00  14.0  17.9   112  35.6  32.6  88.8   29.32     3
2020-01-24 07:58  13.4  18.3   116  35.6  32.7  88.9   29.32     3
2020-01-24 07:56  15.0  21.0   117  35.4  32.5  89.1   29.32     2
2020-01-24 07:54  12.8  16.9   116  35.4  32.5  89.1   29.32     2
2020-01-24 07:52  15.7  19.8   114  35.4  32.6  89.5   29.32     2
2020-01-24 07:50  15.9  18.7   114  35.4  32.9  90.3   29.32     2
2020-01-24 07:48  15.0  18.7   116  35.2  32.9  90.9   29.32     2
2020-01-24 07:46  14.4  17.3   111  35.1  32.8  91.3   29.32     2
2020-01-24 07:44  15.0  17.9   114  35.1  32.9  91.7   29.32     2
2020-01-24 07:42  14.6  17.9   113  34.9  32.8  92.0   29.32     2
2020-01-24 07:40  12.4  18.1   109  34.9  32.8  92.1   29.32     2